createdAt,value
2023-02-14T00:02:37.786Z,97089.31
2023-02-14T00:05:23.861Z,97089.91
2023-02-14T00:08:10.046Z,97083.34
2023-02-14T00:10:56.118Z,97094.44
2023-02-14T00:14:02.214Z,97097.69
2023-02-14T00:16:47.941Z,97099.75
2023-02-14T00:19:35.995Z,97100.19
2023-02-14T00:22:22.094Z,97107.94
2023-02-14T00:25:08.169Z,97099.75
2023-02-14T00:27:55.704Z,97104.25
2023-02-14T00:30:41.379Z,97104.69
2023-02-14T00:33:27.400Z,97092.19
2023-02-14T00:36:13.350Z,97094.44
2023-02-14T00:38:59.366Z,97098.13
2023-02-14T00:41:45.219Z,97100.97
2023-02-14T00:44:31.499Z,97098.91
2023-02-14T00:47:17.229Z,97092.81
2023-02-14T00:50:05.177Z,97083.41
2023-02-14T00:52:50.996Z,97088.72
2023-02-14T00:55:37.796Z,97082.78
2023-02-14T00:58:23.429Z,97084.81
2023-02-14T01:01:09.620Z,97084.63
2023-02-14T01:03:56.772Z,97090.34
2023-02-14T01:06:42.739Z,97076.25
2023-02-14T01:09:28.372Z,97083.16
2023-02-14T01:12:15.125Z,97095.25
2023-02-14T01:15:01.305Z,97099.31
2023-02-14T01:17:46.969Z,97088.06
2023-02-14T01:20:33.023Z,97084.59
2023-02-14T01:23:19.034Z,97086.44
2023-02-14T01:26:08.630Z,97084.19
2023-02-14T01:28:55.104Z,97086.03
2023-02-14T01:31:42.449Z,97073.97
2023-02-14T01:34:28.134Z,97069.03
2023-02-14T01:37:17.810Z,97064.94
2023-02-14T01:40:05.644Z,97064.56
2023-02-14T01:43:17.319Z,97062.91
2023-02-14T01:46:03.986Z,97060.25
2023-02-14T01:48:49.903Z,97059.63
2023-02-14T01:51:44.000Z,97057.59
2023-02-14T01:54:32.120Z,97047.78
2023-02-14T01:57:19.541Z,97049.00
2023-02-14T02:00:41.383Z,97049.00
2023-02-14T02:04:29.475Z,97038.38
2023-02-14T02:07:20.495Z,97037.97
2023-02-14T02:10:07.705Z,97029.38
2023-02-14T02:12:54.908Z,97034.31
2023-02-14T02:16:22.736Z,97041.66
2023-02-14T02:19:42.231Z,97045.72
2023-02-14T02:23:09.614Z,97042.44
2023-02-14T02:26:10.907Z,97039.19
2023-02-14T02:29:34.141Z,97043.06
2023-02-14T02:33:21.455Z,97044.50
2023-02-14T02:36:55.989Z,97037.94
2023-02-14T02:40:12.551Z,97052.88
2023-02-14T02:44:05.854Z,97040.41
2023-02-14T02:47:16.567Z,97035.09
2023-02-14T02:50:29.854Z,97026.53
2023-02-14T02:53:42.539Z,97030.19
2023-02-14T03:00:20.645Z,97031.03
2023-02-14T03:03:43.008Z,97005.25
2023-02-14T03:06:30.871Z,96994.22
2023-02-14T03:09:19.981Z,97003.41
2023-02-14T03:12:44.779Z,96997.50
2023-02-14T03:15:43.069Z,96991.56
2023-02-14T03:19:01.858Z,97006.50
2023-02-14T03:21:53.274Z,97018.34
2023-02-14T03:24:46.340Z,97015.09
2023-02-14T03:27:35.916Z,97020.41
2023-02-14T03:30:33.608Z,97014.66
2023-02-14T03:34:18.570Z,97012.19
2023-02-14T03:41:46.727Z,97027.16
2023-02-14T03:45:00.354Z,97027.16
2023-02-14T03:47:47.225Z,97018.75
2023-02-14T03:50:38.980Z,97014.03
2023-02-14T03:53:27.484Z,97003.63
2023-02-14T03:56:35.112Z,97002.41
2023-02-14T03:59:23.449Z,97008.50
2023-02-14T04:02:11.898Z,97007.06
2023-02-14T04:05:00.863Z,97013.03
2023-02-14T04:07:49.609Z,97005.25
2023-02-14T04:11:09.807Z,96988.28
2023-02-14T04:13:55.562Z,96986.81
2023-02-14T04:20:26.746Z,96991.75
2023-02-14T04:23:12.827Z,96995.00
2023-02-14T04:26:05.119Z,96989.91
2023-02-14T04:28:52.342Z,96995.00
2023-02-14T04:31:38.138Z,96978.66
2023-02-14T04:34:36.494Z,96989.72
2023-02-14T04:37:22.265Z,96986.03
2023-02-14T04:40:48.654Z,96978.88
2023-02-14T04:43:34.668Z,96971.31
2023-02-14T04:46:20.341Z,96975.19
2023-02-14T04:49:18.602Z,96974.38
2023-02-14T04:52:05.305Z,96968.84
2023-02-14T04:54:53.704Z,96971.31
2023-02-14T04:58:13.899Z,96967.63
2023-02-14T05:01:02.580Z,96957.81
2023-02-14T05:03:48.716Z,96964.97
2023-02-14T05:06:46.955Z,96968.84
2023-02-14T05:09:32.558Z,96969.88
2023-02-14T05:12:18.294Z,96954.53
2023-02-14T05:15:04.460Z,96947.16
2023-02-14T05:17:50.112Z,96943.06
2023-02-14T05:20:35.928Z,96941.03
2023-02-14T05:23:22.154Z,96942.25
2023-02-14T05:26:07.947Z,96937.34
2023-02-14T05:28:53.753Z,96939.56
2023-02-14T05:32:28.658Z,96945.91
2023-02-14T05:35:14.461Z,96945.09
2023-02-14T05:38:00.377Z,96944.28
2023-02-14T05:41:20.679Z,96954.31
2023-02-14T05:44:06.608Z,96958.00
2023-02-14T05:46:52.306Z,96964.34
2023-02-14T05:49:48.510Z,96968.03
2023-02-14T05:52:35.076Z,96969.66
2023-02-14T05:55:20.923Z,96961.50
2023-02-14T05:58:07.721Z,96962.31
2023-02-14T06:00:53.735Z,96957.81
2023-02-14T06:03:39.438Z,96945.75
2023-02-14T06:06:25.119Z,96955.97
2023-02-14T06:09:10.893Z,96955.72
2023-02-14T06:11:56.668Z,96953.31
2023-02-14T06:14:43.591Z,96943.28
2023-02-14T06:17:29.526Z,96949.84
2023-02-14T06:20:15.142Z,96950.84
2023-02-14T06:23:03.059Z,96947.97
2023-02-14T06:25:48.917Z,96955.97
2023-02-14T06:28:35.796Z,96959.81
2023-02-14T06:31:21.842Z,96959.00
2023-02-14T06:34:08.977Z,96953.28
2023-02-14T06:36:54.523Z,96962.69
2023-02-14T06:39:40.275Z,96960.63
2023-02-14T06:42:26.243Z,96963.69
2023-02-14T06:45:12.365Z,96959.81
2023-02-14T06:48:00.018Z,96963.69
2023-02-14T06:50:47.231Z,96963.06
2023-02-14T06:53:33.687Z,96956.91
2023-02-14T06:56:19.584Z,96950.75
2023-02-14T06:59:05.880Z,96942.59
2023-02-14T07:01:51.815Z,96939.69
2023-02-14T07:04:37.657Z,96934.34
2023-02-14T07:07:23.558Z,96936.00
2023-02-14T07:10:10.771Z,96945.81
2023-02-14T07:12:56.800Z,96948.66
2023-02-14T07:15:42.791Z,96943.31
2023-02-14T07:18:28.813Z,96931.03
2023-02-14T07:21:14.525Z,96930.63
2023-02-14T07:24:01.314Z,96928.56
2023-02-14T07:26:46.973Z,96926.53
2023-02-14T07:29:32.956Z,96930.38
2023-02-14T07:32:18.707Z,96925.25
2023-02-14T07:35:07.691Z,96924.38
2023-02-14T07:37:53.688Z,96913.75
2023-02-14T07:40:39.393Z,96921.66
2023-02-14T07:43:26.305Z,96918.59
2023-02-14T07:46:12.543Z,96919.34
2023-02-14T07:48:58.446Z,96916.88
2023-02-14T07:51:45.173Z,96920.50
2023-02-14T07:54:31.094Z,96921.25
2023-02-14T07:57:16.991Z,96922.41
2023-02-14T08:00:04.778Z,96921.91
2023-02-14T08:02:57.953Z,96918.41
2023-02-14T08:05:45.058Z,96924.69
2023-02-14T08:08:32.265Z,96917.09
2023-02-14T08:11:38.628Z,96915.84
2023-02-14T08:14:24.543Z,96919.66
2023-02-14T08:17:10.968Z,96913.44
2023-02-14T08:19:57.880Z,96913.00
2023-02-14T08:22:43.456Z,96925.59
2023-02-14T08:25:34.315Z,96921.00
2023-02-14T08:28:23.047Z,96932.75
2023-02-14T08:31:09.095Z,96929.94
2023-02-14T08:33:55.415Z,96922.97
2023-02-14T08:36:41.888Z,96911.31
2023-02-14T08:39:30.070Z,96918.47
2023-02-14T08:42:15.737Z,96923.22
2023-02-14T08:45:02.708Z,96931.03
2023-02-14T08:47:48.308Z,96934.78
2023-02-14T08:50:40.916Z,96926.53
2023-02-14T08:53:26.706Z,96940.31
2023-02-14T08:56:14.902Z,96938.94
2023-02-14T08:59:00.542Z,96941.75
2023-02-14T09:01:46.340Z,96951.53
2023-02-14T09:04:35.217Z,96950.47
2023-02-14T09:07:22.340Z,96939.91
2023-02-14T09:10:08.748Z,96948.53
2023-02-14T09:12:55.771Z,96956.22
2023-02-14T09:15:45.635Z,96951.22
2023-02-14T09:18:34.891Z,96953.31
2023-02-14T09:21:24.005Z,96951.59
2023-02-14T09:24:10.041Z,96945.28
2023-02-14T09:26:57.884Z,96943.78
2023-02-14T09:29:44.273Z,96949.28
2023-02-14T09:32:30.163Z,96949.13
2023-02-14T09:35:16.719Z,96950.88
2023-02-14T09:38:18.778Z,96944.25
2023-02-14T09:41:08.840Z,96943.88
2023-02-14T09:43:55.083Z,96956.47
2023-02-14T09:46:45.971Z,96947.97
2023-02-14T09:49:33.755Z,96952.97
2023-02-14T09:52:23.137Z,96951.31
2023-02-14T09:55:15.897Z,96949.47
2023-02-14T09:58:23.240Z,96959.94
2023-02-14T10:01:15.286Z,96955.75
2023-02-14T10:04:16.848Z,96950.25
2023-02-14T10:07:18.428Z,96950.03
2023-02-14T10:10:38.652Z,96954.91
2023-02-14T10:13:31.951Z,96936.81
2023-02-14T10:16:43.285Z,96941.09
2023-02-14T10:19:36.340Z,96935.03
2023-02-14T10:22:29.304Z,96935.13
2023-02-14T10:25:23.157Z,96921.34
2023-02-14T10:28:15.241Z,96921.81
2023-02-14T10:31:25.850Z,96927.19
2023-02-14T10:34:43.639Z,96897.94
2023-02-14T10:37:48.361Z,96902.00
2023-02-14T10:40:51.343Z,96895.09
2023-02-14T10:43:47.508Z,96903.13
2023-02-14T10:46:54.479Z,96892.59
2023-02-14T10:50:12.712Z,96880.44
2023-02-14T10:53:10.793Z,96886.28
2023-02-14T10:56:21.404Z,96872.53
2023-02-14T10:59:23.139Z,96867.09
2023-02-14T11:02:13.984Z,96853.56
2023-02-14T11:05:01.280Z,96858.00
2023-02-14T11:07:48.283Z,96842.09
2023-02-14T11:10:35.754Z,96849.97
2023-02-14T11:13:41.204Z,96865.34
2023-02-14T11:16:32.306Z,96875.09
2023-02-14T11:19:26.882Z,96868.91
2023-02-14T11:22:29.966Z,96865.22
2023-02-14T11:25:18.775Z,96863.34
2023-02-14T11:28:06.497Z,96863.44
2023-02-14T11:30:52.427Z,96856.53
2023-02-14T11:33:41.360Z,96851.16
2023-02-14T11:36:27.501Z,96844.66
2023-02-14T11:39:34.820Z,96835.22
2023-02-14T11:42:42.971Z,96845.63
2023-02-14T11:45:39.802Z,96845.00
2023-02-14T11:48:37.614Z,96836.25
2023-02-14T11:51:31.157Z,96830.28
2023-02-14T11:54:48.549Z,96824.09
2023-02-14T11:57:37.670Z,96818.22
2023-02-14T12:00:26.817Z,96826.03
2023-02-14T12:03:19.242Z,96822.78
2023-02-14T12:06:05.206Z,96809.81
2023-02-14T12:09:22.181Z,96801.06
2023-02-14T12:12:17.863Z,96799.91
2023-02-14T12:15:50.052Z,96799.84
2023-02-14T12:18:46.278Z,96798.69
2023-02-14T12:21:48.819Z,96794.78
2023-02-14T12:24:38.573Z,96786.59
2023-02-14T12:27:57.303Z,96801.00
2023-02-14T12:30:45.218Z,96800.09
2023-02-14T12:33:31.241Z,96789.56
2023-02-14T12:36:28.985Z,96787.59
2023-02-14T12:39:21.013Z,96789.44
2023-02-14T12:43:16.282Z,96771.06
2023-02-14T12:46:14.698Z,96765.06
2023-02-14T12:49:22.653Z,96779.00
2023-02-14T12:52:40.695Z,96784.94
2023-02-14T12:55:41.174Z,96787.13
2023-02-14T12:58:50.703Z,96774.75
2023-02-14T13:02:05.342Z,96782.81
2023-02-14T13:04:56.188Z,96790.31
2023-02-14T13:07:52.983Z,96789.22
2023-02-14T13:11:17.968Z,96782.00
2023-02-14T13:18:55.700Z,96771.28
2023-02-14T13:21:42.042Z,96751.16
2023-02-14T13:24:30.715Z,96751.31
2023-02-14T13:27:23.089Z,96761.13
2023-02-14T13:30:21.988Z,96754.56
2023-02-14T13:33:35.274Z,96747.75
2023-02-14T13:36:21.346Z,96745.75
2023-02-14T13:39:21.719Z,96755.94
2023-02-14T13:42:07.903Z,96763.56
2023-02-14T13:44:53.942Z,96759.88
2023-02-14T13:47:39.686Z,96757.78
2023-02-14T13:50:25.761Z,96777.81
2023-02-14T13:53:12.768Z,96770.00
2023-02-14T13:55:58.892Z,96748.97
2023-02-14T13:59:04.580Z,96769.75
2023-02-14T14:01:51.393Z,96753.47
2023-02-14T14:04:54.596Z,96756.03
2023-02-14T14:07:40.459Z,96754.28
2023-02-14T14:11:01.486Z,96743.91
2023-02-14T14:14:30.379Z,96741.56
2023-02-14T14:17:21.288Z,96737.72
2023-02-14T14:20:21.065Z,96737.59
2023-02-14T14:23:31.487Z,96743.38
2023-02-14T14:26:48.232Z,96736.09
2023-02-14T14:29:59.571Z,96748.72
2023-02-14T14:32:45.570Z,96735.16
2023-02-14T14:35:31.448Z,96728.34
2023-02-14T14:38:17.011Z,96729.63
2023-02-14T14:41:03.001Z,96734.44
2023-02-14T14:43:50.510Z,96732.78
2023-02-14T14:46:37.137Z,96730.28
2023-02-14T14:49:22.772Z,96727.56
2023-02-14T14:52:35.483Z,96728.88
2023-02-14T14:55:24.676Z,96719.94
2023-02-14T14:58:40.176Z,96715.91
2023-02-14T15:01:40.100Z,96729.59
2023-02-14T15:04:30.612Z,96725.53
2023-02-14T15:07:27.663Z,96722.78
2023-02-14T15:10:29.347Z,96718.16
2023-02-14T15:13:33.840Z,96725.91
2023-02-14T15:16:47.474Z,96727.41
2023-02-14T15:19:44.256Z,96730.84
2023-02-14T15:22:35.755Z,96726.16
2023-02-14T15:25:27.261Z,96728.16
2023-02-14T15:28:30.527Z,96732.91
2023-02-14T15:31:16.873Z,96734.41
2023-02-14T15:34:04.831Z,96726.84
2023-02-14T15:36:56.123Z,96737.19
2023-02-14T15:39:44.126Z,96722.88
2023-02-14T15:42:33.109Z,96724.34
2023-02-14T15:45:27.829Z,96723.53
2023-02-14T15:48:30.026Z,96729.09
2023-02-14T15:51:32.892Z,96735.47
2023-02-14T15:54:39.497Z,96733.25
2023-02-14T15:57:27.188Z,96724.56
2023-02-14T16:00:21.740Z,96732.53
2023-02-14T16:03:12.951Z,96725.97
2023-02-14T16:05:59.174Z,96739.84
2023-02-14T16:08:55.071Z,96744.78
2023-02-14T16:11:41.132Z,96737.22
2023-02-14T16:14:31.363Z,96746.00
2023-02-14T16:17:32.283Z,96759.88
2023-02-14T16:20:43.544Z,96755.00
2023-02-14T16:23:31.072Z,96747.44
2023-02-14T16:26:17.144Z,96770.03
2023-02-14T16:29:04.065Z,96777.03
2023-02-14T16:32:15.110Z,96763.28
2023-02-14T16:35:01.031Z,96769.63
2023-02-14T16:37:47.634Z,96774.44
2023-02-14T16:40:33.611Z,96783.00
2023-02-14T16:43:20.248Z,96784.69
2023-02-14T16:46:11.457Z,96794.81
2023-02-14T16:48:57.461Z,96783.47
2023-02-14T16:51:45.772Z,96794.19
2023-02-14T16:54:32.414Z,96797.50
2023-02-14T16:57:27.666Z,96796.94
2023-02-14T17:00:14.492Z,96800.84
2023-02-14T17:03:06.397Z,96793.28
2023-02-14T17:05:53.369Z,96796.66
2023-02-14T17:08:41.029Z,96797.97
2023-02-14T17:11:28.771Z,96793.09
2023-02-14T17:14:18.754Z,96805.34
2023-02-14T17:17:06.579Z,96814.19
2023-02-14T17:19:52.918Z,96799.09
2023-02-14T17:22:42.461Z,96812.25
2023-02-14T17:25:28.473Z,96810.03
2023-02-14T17:28:14.089Z,96806.31
2023-02-14T17:31:00.933Z,96818.53
2023-02-14T17:33:48.609Z,96815.28
2023-02-14T17:36:34.495Z,96816.09
2023-02-14T17:39:20.601Z,96806.44
2023-02-14T17:42:06.275Z,96807.84
2023-02-14T17:44:53.172Z,96808.31
2023-02-14T17:47:40.986Z,96809.13
2023-02-14T17:50:26.728Z,96809.34
2023-02-14T17:53:12.598Z,96813.66
2023-02-14T17:55:58.316Z,96811.47
2023-02-14T17:58:44.301Z,96805.53
2023-02-14T18:01:34.843Z,96797.41
2023-02-14T18:04:21.364Z,96809.97
2023-02-14T18:07:07.838Z,96815.84
2023-02-14T18:09:53.978Z,96808.50
2023-02-14T18:12:40.095Z,96814.44
2023-02-14T18:15:27.576Z,96809.09
2023-02-14T18:18:13.934Z,96818.16
2023-02-14T18:21:02.555Z,96816.97
2023-02-14T18:23:49.566Z,96813.72
2023-02-14T18:26:38.916Z,96824.41
2023-02-14T18:29:25.243Z,96824.41
2023-02-14T18:32:11.557Z,96827.09
2023-02-14T18:34:57.828Z,96827.69
2023-02-14T18:37:47.513Z,96828.19
2023-02-14T18:40:33.237Z,96819.56
2023-02-14T18:43:21.186Z,96828.66
2023-02-14T18:46:14.196Z,96823.06
2023-02-14T18:49:02.068Z,96820.38
2023-02-14T18:51:49.060Z,96831.09
2023-02-14T18:54:35.140Z,96825.03
2023-02-14T18:57:21.136Z,96824.22
2023-02-14T19:00:12.062Z,96823.09
2023-02-14T19:02:58.836Z,96832.16
2023-02-14T19:05:45.896Z,96829.38
2023-02-14T19:08:32.956Z,96844.50
2023-02-14T19:11:27.554Z,96828.91
2023-02-14T19:14:13.719Z,96843.34
2023-02-14T19:16:59.644Z,96837.63
2023-02-14T19:19:48.401Z,96841.72
2023-02-14T19:22:41.507Z,96847.88
2023-02-14T19:25:30.974Z,96849.28
2023-02-14T19:28:16.950Z,96855.69
2023-02-14T19:31:02.942Z,96855.31
2023-02-14T19:33:49.057Z,96846.47
2023-02-14T19:36:37.644Z,96849.50
2023-02-14T19:39:25.949Z,96846.25
2023-02-14T19:42:11.947Z,96863.13
2023-02-14T19:44:57.595Z,96863.94
2023-02-14T19:47:47.638Z,96867.88
2023-02-14T19:50:33.875Z,96863.63
2023-02-14T19:53:19.772Z,96866.28
2023-02-14T19:56:06.415Z,96868.38
2023-02-14T19:58:56.165Z,96869.44
2023-02-14T20:01:46.530Z,96861.97
2023-02-14T20:04:32.606Z,96860.00
2023-02-14T20:07:18.610Z,96869.44
2023-02-14T20:10:06.003Z,96865.72
2023-02-14T20:12:52.260Z,96872.09
2023-02-14T20:15:38.364Z,96873.50
2023-02-14T20:18:24.481Z,96863.94
2023-02-14T20:21:17.933Z,96862.31
2023-02-14T20:24:04.142Z,96873.53
2023-02-14T20:26:50.925Z,96872.47
2023-02-14T20:29:39.080Z,96869.78
2023-02-14T20:32:27.978Z,96872.94
2023-02-14T20:35:13.880Z,96862.47
2023-02-14T20:38:00.832Z,96865.38
2023-02-14T20:40:48.278Z,96865.81
2023-02-14T20:43:35.250Z,96866.06
2023-02-14T20:46:22.347Z,96874.34
2023-02-14T20:49:11.225Z,96865.72
2023-02-14T20:51:58.291Z,96863.06
2023-02-14T20:54:45.250Z,96866.53
2023-02-14T20:57:31.359Z,96864.56
2023-02-14T21:00:17.679Z,96875.25
2023-02-14T21:03:04.010Z,96848.28
2023-02-14T21:05:50.261Z,96870.38
2023-02-14T21:08:36.528Z,96888.53
2023-02-14T21:11:24.326Z,96886.91
2023-02-14T21:14:12.630Z,96867.22
2023-02-14T21:16:58.684Z,96875.25
2023-02-14T21:19:44.398Z,96877.13
2023-02-14T21:22:31.161Z,96874.78
2023-02-14T21:25:17.116Z,96876.88
2023-02-14T21:28:03.210Z,96882.22
2023-02-14T21:30:54.469Z,96868.41
2023-02-14T21:33:42.087Z,96877.91
2023-02-14T21:36:29.668Z,96862.91
2023-02-14T21:39:23.019Z,96856.19
2023-02-14T21:42:11.681Z,96868.75
2023-02-14T21:45:15.887Z,96869.56
2023-02-14T21:48:21.463Z,96877.22
2023-02-14T21:51:07.928Z,96886.88
2023-02-14T21:53:59.917Z,96886.28
2023-02-14T21:56:46.150Z,96884.88
2023-02-14T22:00:05.874Z,96886.16
2023-02-14T22:02:56.554Z,96878.03
2023-02-14T22:05:45.726Z,96868.25
2023-02-14T22:08:32.008Z,96888.72
2023-02-14T22:11:23.178Z,96896.16
2023-02-14T22:14:08.999Z,96883.50
2023-02-14T22:16:56.548Z,96888.84
2023-02-14T22:19:42.496Z,96895.78
2023-02-14T22:22:28.173Z,96894.41
2023-02-14T22:25:15.242Z,96880.31
2023-02-14T22:28:01.289Z,96882.41
2023-02-14T22:30:47.519Z,96906.59
2023-02-14T22:33:33.184Z,96896.94
2023-02-14T22:36:20.377Z,96880.81
2023-02-14T22:39:06.830Z,96896.59
2023-02-14T22:41:52.811Z,96894.16
2023-02-14T22:44:38.439Z,96898.44
2023-02-14T22:47:24.455Z,96894.03
2023-02-14T22:50:10.599Z,96897.66
2023-02-14T22:53:04.825Z,96900.88
2023-02-14T22:55:50.509Z,96905.41
2023-02-14T22:58:36.213Z,96900.88
2023-02-14T23:01:22.534Z,96906.59
2023-02-14T23:04:08.760Z,96903.47
2023-02-14T23:06:55.053Z,96900.81
2023-02-14T23:09:40.620Z,96899.63
2023-02-14T23:12:44.782Z,96899.63
2023-02-14T23:15:51.598Z,96910.69
2023-02-14T23:18:56.056Z,96905.56
2023-02-14T23:21:57.997Z,96906.22
2023-02-14T23:24:45.477Z,96903.78
2023-02-14T23:27:38.478Z,96904.97
2023-02-14T23:30:24.211Z,96897.16
2023-02-14T23:33:15.898Z,96899.25
2023-02-14T23:36:04.959Z,96899.03
2023-02-14T23:38:52.931Z,96899.50
2023-02-14T23:42:03.479Z,96897.66
2023-02-14T23:44:49.557Z,96895.53
2023-02-14T23:47:35.344Z,96896.84
2023-02-14T23:50:23.987Z,96900.56
2023-02-14T23:53:09.854Z,96898.91
2023-02-14T23:56:02.290Z,96886.22
2023-02-14T23:58:48.378Z,96890.75
